createdAt,value
2018-09-15T00:00:42.952Z,7.53
2018-09-15T00:03:10.738Z,6.40
2018-09-15T00:05:38.541Z,6.07
2018-09-15T00:08:06.340Z,5.97
2018-09-15T00:10:34.147Z,6.77
2018-09-15T00:13:01.988Z,7.07
2018-09-15T00:15:29.770Z,6.27
2018-09-15T00:17:59.060Z,5.50
2018-09-15T00:20:26.978Z,6.90
2018-09-15T00:22:54.900Z,6.47
2018-09-15T00:25:22.903Z,13.73
2018-09-15T00:27:50.681Z,13.57
2018-09-15T00:30:18.486Z,12.67
2018-09-15T00:32:46.254Z,12.00
2018-09-15T00:35:14.147Z,15.30
2018-09-15T00:37:41.897Z,12.97
2018-09-15T00:40:09.662Z,13.77
2018-09-15T00:42:37.446Z,15.07
2018-09-15T00:45:05.269Z,12.40
2018-09-15T00:47:33.060Z,16.00
2018-09-15T00:50:00.813Z,14.90
2018-09-15T00:52:28.600Z,12.53
2018-09-15T00:54:56.492Z,13.30
2018-09-15T00:57:24.269Z,12.43
2018-09-15T00:59:52.988Z,14.23
2018-09-15T01:02:20.764Z,13.87
2018-09-15T01:04:52.660Z,12.87
2018-09-15T01:07:20.445Z,16.23
2018-09-15T01:09:48.213Z,17.60
2018-09-15T01:12:15.969Z,16.47
2018-09-15T01:14:43.755Z,18.20
2018-09-15T01:17:11.525Z,16.90
2018-09-15T01:19:39.396Z,16.97
2018-09-15T01:22:07.504Z,16.37
2018-09-15T01:24:35.265Z,17.03
2018-09-15T01:27:03.037Z,18.83
2018-09-15T01:29:31.928Z,16.30
2018-09-15T01:32:00.030Z,16.23
2018-09-15T01:34:27.792Z,17.87
2018-09-15T01:36:55.888Z,16.43
2018-09-15T01:39:23.841Z,15.20
2018-09-15T01:41:51.678Z,20.03
2018-09-15T01:44:19.503Z,16.97
2018-09-15T01:46:47.315Z,19.47
2018-09-15T01:49:16.796Z,17.43
2018-09-15T01:51:44.628Z,23.30
2018-09-15T01:54:12.436Z,21.73
2018-09-15T01:56:40.222Z,20.80
2018-09-15T01:59:08.017Z,16.30
2018-09-15T02:01:35.899Z,22.67
2018-09-15T02:04:03.661Z,16.73
2018-09-15T02:06:31.444Z,17.73
2018-09-15T02:08:59.241Z,24.33
2018-09-15T02:11:27.083Z,16.97
2018-09-15T02:13:55.349Z,18.60
2018-09-15T02:16:23.172Z,25.17
2018-09-15T02:18:50.937Z,25.20
2018-09-15T02:21:18.708Z,14.50
2018-09-15T02:23:46.440Z,23.00
2018-09-15T02:26:14.288Z,15.33
2018-09-15T02:28:42.056Z,16.43
2018-09-15T02:31:09.846Z,23.03
2018-09-15T02:33:37.581Z,19.93
2018-09-15T02:36:05.370Z,21.77
2018-09-15T02:38:33.125Z,21.53
2018-09-15T02:41:00.932Z,23.07
2018-09-15T02:43:28.813Z,20.17
2018-09-15T02:45:56.625Z,21.73
2018-09-15T02:48:24.502Z,21.37
2018-09-15T02:50:52.270Z,22.13
2018-09-15T02:53:20.149Z,20.57
2018-09-15T02:55:47.929Z,21.27
2018-09-15T02:58:15.697Z,19.73
2018-09-15T03:00:43.501Z,19.73
2018-09-15T03:03:12.152Z,14.47
2018-09-15T03:05:40.466Z,20.00
2018-09-15T03:08:08.237Z,19.97
2018-09-15T03:10:36.040Z,19.83
2018-09-15T03:13:03.786Z,20.13
2018-09-15T03:15:31.550Z,21.87
2018-09-15T03:17:59.353Z,21.90
2018-09-15T03:20:27.127Z,20.67
2018-09-15T03:22:55.273Z,21.43
2018-09-15T03:25:23.085Z,20.50
2018-09-15T03:27:50.877Z,20.93
2018-09-15T03:30:18.813Z,20.80
2018-09-15T03:32:46.612Z,20.33
2018-09-15T03:35:14.997Z,23.10
2018-09-15T03:37:43.129Z,15.27
2018-09-15T03:40:10.933Z,21.97
2018-09-15T03:42:38.680Z,20.47
2018-09-15T03:45:06.544Z,22.20
2018-09-15T03:47:34.288Z,22.90
2018-09-15T03:50:02.085Z,22.77
2018-09-15T03:52:29.889Z,23.50
2018-09-15T03:54:57.712Z,25.00
2018-09-15T03:57:25.559Z,28.07
2018-09-15T03:59:53.525Z,28.40
2018-09-15T04:02:21.261Z,26.60
2018-09-15T04:04:49.076Z,27.80
2018-09-15T04:07:16.833Z,29.47
2018-09-15T04:09:44.597Z,28.37
2018-09-15T04:12:12.380Z,28.90
2018-09-15T04:14:40.140Z,29.07
2018-09-15T04:17:07.937Z,30.00
2018-09-15T04:19:35.704Z,30.73
2018-09-15T04:22:04.251Z,22.33
2018-09-15T04:24:32.061Z,28.67
2018-09-15T04:26:59.832Z,21.17
2018-09-15T04:29:27.633Z,22.33
2018-09-15T04:31:55.792Z,23.47
2018-09-15T04:34:23.581Z,22.47
2018-09-15T04:36:52.593Z,21.43
2018-09-15T04:39:20.377Z,21.00
2018-09-15T04:41:48.886Z,22.63
2018-09-15T04:44:16.645Z,26.97
2018-09-15T04:46:44.405Z,23.53
2018-09-15T04:49:12.194Z,22.53
2018-09-15T04:51:39.974Z,31.77
2018-09-15T04:54:07.764Z,33.97
2018-09-15T04:56:35.587Z,26.50
2018-09-15T04:59:03.408Z,32.27
2018-09-15T05:01:31.237Z,23.90
2018-09-15T05:03:59.061Z,23.60
2018-09-15T05:06:26.937Z,32.47
2018-09-15T05:08:54.858Z,33.77
2018-09-15T05:11:22.628Z,34.17
2018-09-15T05:13:50.426Z,35.87
2018-09-15T05:16:18.206Z,35.47
2018-09-15T05:18:46.272Z,38.83
2018-09-15T05:21:14.042Z,39.53
2018-09-15T05:23:41.986Z,38.80
2018-09-15T05:26:09.776Z,38.60
2018-09-15T05:28:37.607Z,37.10
2018-09-15T05:31:05.341Z,34.80
2018-09-15T05:33:33.156Z,37.97
2018-09-15T05:36:01.032Z,38.30
2018-09-15T05:38:28.837Z,37.33
2018-09-15T05:40:56.718Z,38.23
2018-09-15T05:43:24.524Z,36.13
2018-09-15T05:45:52.292Z,37.37
2018-09-15T05:48:20.085Z,40.07
2018-09-15T05:50:47.869Z,42.80
2018-09-15T05:53:15.643Z,46.27
2018-09-15T05:55:43.448Z,41.97
2018-09-15T05:58:11.220Z,47.73
2018-09-15T06:00:39.020Z,40.00
2018-09-15T06:03:06.821Z,46.70
2018-09-15T06:05:34.574Z,43.47
2018-09-15T06:08:02.376Z,45.93
2018-09-15T06:10:30.189Z,48.07
2018-09-15T06:12:59.384Z,45.50
2018-09-15T06:15:27.261Z,44.30
2018-09-15T06:17:55.241Z,47.43
2018-09-15T06:20:23.869Z,43.20
2018-09-15T06:22:51.629Z,42.67
2018-09-15T06:25:19.617Z,44.27
2018-09-15T06:27:47.371Z,40.17
2018-09-15T06:30:15.169Z,41.67
2018-09-15T06:32:42.964Z,42.83
2018-09-15T06:35:10.853Z,37.03
2018-09-15T06:37:38.611Z,41.97
2018-09-15T06:40:06.761Z,40.53
2018-09-15T06:42:34.537Z,39.27
2018-09-15T06:45:02.381Z,37.43
2018-09-15T06:47:30.261Z,38.23
2018-09-15T06:49:58.121Z,29.77
2018-09-15T06:52:25.908Z,31.90
2018-09-15T06:54:53.671Z,30.70
2018-09-15T06:57:21.478Z,28.30
2018-09-15T06:59:49.232Z,26.67
2018-09-15T07:02:17.025Z,33.77
2018-09-15T07:04:44.796Z,32.83
2018-09-15T07:07:12.557Z,23.83
2018-09-15T07:09:40.325Z,25.90
2018-09-15T07:12:08.178Z,24.50
2018-09-15T07:14:35.957Z,23.20
2018-09-15T07:17:03.753Z,22.60
2018-09-15T07:19:31.597Z,23.67
2018-09-15T07:21:59.505Z,24.47
2018-09-15T07:24:27.300Z,26.50
2018-09-15T07:26:55.273Z,23.77
2018-09-15T07:29:23.053Z,22.93
2018-09-15T07:31:51.103Z,23.60
2018-09-15T07:34:18.933Z,24.00
2018-09-15T07:36:46.769Z,26.50
2018-09-15T07:39:14.672Z,22.37
2018-09-15T07:41:42.484Z,21.70
2018-09-15T07:44:10.310Z,20.97
2018-09-15T07:46:39.033Z,20.53
2018-09-15T07:49:06.805Z,20.43
2018-09-15T07:51:34.695Z,20.50
2018-09-15T07:54:02.472Z,21.03
2018-09-15T07:56:31.625Z,20.60
2018-09-15T07:58:59.445Z,22.07
2018-09-15T08:01:31.472Z,23.10
2018-09-15T08:03:59.378Z,24.90
2018-09-15T08:06:27.193Z,21.43
2018-09-15T08:08:55.243Z,23.43
2018-09-15T08:11:23.088Z,23.27
2018-09-15T08:13:50.905Z,25.43
2018-09-15T08:16:22.033Z,22.37
2018-09-15T08:18:50.045Z,23.73
2018-09-15T08:21:17.864Z,22.97
2018-09-15T08:23:45.629Z,22.30
2018-09-15T08:26:13.487Z,22.00
2018-09-15T08:28:41.289Z,24.40
2018-09-15T08:31:09.641Z,25.37
2018-09-15T08:33:37.428Z,20.60
2018-09-15T08:36:05.269Z,21.03
2018-09-15T08:38:33.361Z,18.57
2018-09-15T08:41:01.221Z,19.23
2018-09-15T08:43:29.025Z,18.27
2018-09-15T08:45:57.041Z,18.27
2018-09-15T08:48:24.857Z,17.67
2018-09-15T08:50:52.637Z,17.43
2018-09-15T08:53:21.521Z,16.70
2018-09-15T08:55:49.384Z,17.65
2018-09-15T08:58:17.209Z,16.85
2018-09-15T09:00:45.005Z,19.20
2018-09-15T09:03:12.865Z,17.02
2018-09-15T09:05:40.689Z,16.70
2018-09-15T09:08:08.518Z,15.58
2018-09-15T09:10:36.321Z,16.02
2018-09-15T09:13:04.217Z,15.03
2018-09-15T09:15:32.144Z,16.65
2018-09-15T09:18:00.022Z,16.80
2018-09-15T09:20:27.956Z,16.75
2018-09-15T09:22:55.845Z,15.55
2018-09-15T09:25:23.640Z,17.32
2018-09-15T09:27:51.401Z,17.67
2018-09-15T09:30:19.189Z,18.48
2018-09-15T09:32:47.032Z,17.27
2018-09-15T09:35:14.905Z,19.65
2018-09-15T09:37:42.757Z,18.17
2018-09-15T09:40:10.577Z,17.37
2018-09-15T09:42:38.440Z,17.52
2018-09-15T09:45:07.217Z,17.45
2018-09-15T09:47:35.017Z,16.48
2018-09-15T09:50:02.865Z,17.05
2018-09-15T09:52:30.670Z,15.90
2018-09-15T09:54:58.781Z,15.70
2018-09-15T09:57:26.780Z,14.70
2018-09-15T09:59:54.652Z,16.50
2018-09-15T10:02:23.505Z,17.32
2018-09-15T10:04:51.367Z,17.15
2018-09-15T10:07:19.481Z,15.70
2018-09-15T10:09:48.396Z,18.37
2018-09-15T10:12:16.314Z,15.78
2018-09-15T10:14:44.135Z,15.20
2018-09-15T10:17:11.959Z,14.78
2018-09-15T10:19:39.753Z,14.33
2018-09-15T10:22:07.525Z,14.10
2018-09-15T10:24:35.329Z,12.30
2018-09-15T10:27:03.232Z,12.25
2018-09-15T10:29:31.104Z,20.92
2018-09-15T10:31:58.894Z,21.30
2018-09-15T10:34:26.739Z,22.02
2018-09-15T10:36:55.241Z,13.75
2018-09-15T10:39:23.021Z,13.90
2018-09-15T10:41:50.814Z,20.75
2018-09-15T10:44:18.687Z,20.90
2018-09-15T10:46:46.624Z,12.73
2018-09-15T10:49:14.473Z,21.33
2018-09-15T10:51:42.257Z,19.17
2018-09-15T10:54:10.013Z,20.43
2018-09-15T10:56:37.782Z,13.98
2018-09-15T10:59:05.574Z,13.95
2018-09-15T11:01:33.396Z,22.75
2018-09-15T11:04:01.245Z,15.38
2018-09-15T11:06:29.106Z,24.10
2018-09-15T11:08:57.804Z,20.85
2018-09-15T11:11:25.625Z,22.90
2018-09-15T11:13:53.393Z,22.15
2018-09-15T11:16:21.181Z,21.90
2018-09-15T11:18:48.967Z,21.73
2018-09-15T11:21:16.793Z,21.02
2018-09-15T11:23:44.553Z,20.45
2018-09-15T11:26:12.333Z,13.68
2018-09-15T11:28:40.190Z,22.17
2018-09-15T11:31:08.059Z,20.48
2018-09-15T11:33:35.853Z,22.77
2018-09-15T11:36:03.689Z,20.48
2018-09-15T11:38:31.557Z,18.37
2018-09-15T11:40:59.561Z,19.80
2018-09-15T11:43:27.391Z,20.62
2018-09-15T11:45:55.269Z,22.22
2018-09-15T11:48:23.053Z,21.17
2018-09-15T11:50:50.964Z,22.98
2018-09-15T11:53:18.817Z,20.40
2018-09-15T11:55:46.656Z,21.20
2018-09-15T11:58:14.634Z,20.12
2018-09-15T12:00:46.045Z,19.77
2018-09-15T12:03:14.080Z,35.78
2018-09-15T12:05:41.909Z,25.10
2018-09-15T12:08:09.714Z,23.52
2018-09-15T12:10:37.517Z,22.55
2018-09-15T12:13:05.345Z,19.25
2018-09-15T12:15:33.148Z,21.33
2018-09-15T12:18:01.115Z,20.48
2018-09-15T12:20:29.188Z,20.08
2018-09-15T12:22:57.338Z,20.37
2018-09-15T12:25:25.124Z,19.80
2018-09-15T12:27:53.009Z,19.92
2018-09-15T12:30:20.792Z,19.85
2018-09-15T12:32:48.573Z,19.87
2018-09-15T12:35:16.380Z,18.92
2018-09-15T12:37:44.186Z,20.17
2018-09-15T12:40:11.957Z,19.77
2018-09-15T12:42:39.797Z,29.40
2018-09-15T12:45:07.761Z,26.85
2018-09-15T12:47:35.468Z,31.37
2018-09-15T12:50:03.284Z,22.45
2018-09-15T12:52:31.241Z,21.05
2018-09-15T12:55:00.346Z,19.95
2018-09-15T12:57:28.162Z,20.37
2018-09-15T12:59:58.266Z,20.65
2018-09-15T13:02:26.137Z,18.40
2018-09-15T13:04:53.974Z,20.97
2018-09-15T13:07:21.818Z,23.07
2018-09-15T13:09:49.637Z,21.97
2018-09-15T13:12:17.424Z,20.00
2018-09-15T13:14:45.209Z,103.07
2018-09-15T13:17:13.005Z,76.20
2018-09-15T13:19:41.688Z,26.25
2018-09-15T13:22:09.484Z,18.80
2018-09-15T13:24:37.296Z,26.62
2018-09-15T13:27:05.253Z,19.23
2018-09-15T13:29:33.329Z,19.77
2018-09-15T13:32:01.297Z,18.30
2018-09-15T13:34:29.329Z,18.02
2018-09-15T13:36:57.240Z,19.15
2018-09-15T13:39:25.105Z,23.47
2018-09-15T13:41:52.896Z,20.43
2018-09-15T13:44:20.709Z,19.27
2018-09-15T13:46:48.632Z,16.82
2018-09-15T13:49:16.394Z,19.15
2018-09-15T13:51:44.208Z,86.65
2018-09-15T13:54:11.972Z,60.48
2018-09-15T13:56:39.722Z,27.90
2018-09-15T13:59:07.599Z,19.42
2018-09-15T14:01:35.377Z,21.17
2018-09-15T14:04:03.208Z,17.57
2018-09-15T14:06:31.180Z,19.67
2018-09-15T14:08:59.025Z,18.35
2018-09-15T14:11:26.873Z,18.52
2018-09-15T14:13:54.729Z,19.15
2018-09-15T14:16:22.644Z,17.10
2018-09-15T14:18:50.408Z,17.55
2018-09-15T14:21:18.189Z,17.77
2018-09-15T14:23:45.948Z,17.95
2018-09-15T14:26:13.737Z,17.05
2018-09-15T14:28:41.729Z,17.50
2018-09-15T14:31:09.492Z,18.32
2018-09-15T14:33:37.309Z,18.23
2018-09-15T14:36:05.065Z,18.42
2018-09-15T14:38:32.939Z,19.92
2018-09-15T14:41:00.720Z,18.35
2018-09-15T14:43:28.525Z,17.77
2018-09-15T14:45:56.373Z,18.30
2018-09-15T14:48:24.207Z,17.60
2018-09-15T14:50:51.950Z,18.57
2018-09-15T14:53:19.805Z,18.48
2018-09-15T14:55:47.645Z,19.07
2018-09-15T14:58:15.437Z,18.85
2018-09-15T15:00:47.791Z,16.75
2018-09-15T15:03:15.672Z,21.97
2018-09-15T15:05:43.460Z,16.67
2018-09-15T15:08:11.340Z,17.50
2018-09-15T15:10:39.165Z,16.85
2018-09-15T15:13:06.949Z,16.42
2018-09-15T15:15:34.760Z,15.85
2018-09-15T15:18:02.637Z,16.90
2018-09-15T15:20:30.637Z,16.93
2018-09-15T15:22:58.418Z,16.57
2018-09-15T15:25:26.252Z,16.45
2018-09-15T15:27:54.045Z,16.10
2018-09-15T15:30:21.840Z,16.17
2018-09-15T15:32:49.657Z,16.95
2018-09-15T15:35:17.477Z,16.55
2018-09-15T15:37:45.295Z,17.20
2018-09-15T15:40:13.101Z,16.10
2018-09-15T15:42:40.869Z,17.45
2018-09-15T15:45:08.695Z,16.73
2018-09-15T15:47:36.437Z,16.12
2018-09-15T15:50:04.321Z,18.00
2018-09-15T15:52:32.225Z,16.65
2018-09-15T15:55:00.101Z,15.60
2018-09-15T15:57:27.903Z,15.85
2018-09-15T15:59:55.798Z,16.10
2018-09-15T16:02:23.624Z,15.77
2018-09-15T16:04:51.431Z,16.30
2018-09-15T16:07:19.513Z,15.37
2018-09-15T16:09:47.303Z,15.87
2018-09-15T16:12:15.161Z,16.03
2018-09-15T16:14:42.985Z,15.10
2018-09-15T16:17:10.862Z,6.90
2018-09-15T16:19:38.705Z,7.20
2018-09-15T16:22:06.685Z,6.97
2018-09-15T16:24:34.568Z,6.73
2018-09-15T16:27:02.528Z,7.50
2018-09-15T16:29:30.492Z,7.47
2018-09-15T16:31:58.305Z,8.23
2018-09-15T16:34:26.082Z,8.03
2018-09-15T16:36:53.885Z,8.10
2018-09-15T16:39:21.721Z,6.97
2018-09-15T16:41:49.521Z,7.63
2018-09-15T16:44:17.321Z,7.93
2018-09-15T16:46:45.375Z,7.80
2018-09-15T16:49:13.207Z,8.53
2018-09-15T16:51:41.036Z,7.80
2018-09-15T16:54:08.804Z,7.00
2018-09-15T16:56:37.029Z,7.30
2018-09-15T16:59:04.964Z,7.47
2018-09-15T17:01:33.029Z,7.47
2018-09-15T17:04:00.797Z,7.20
2018-09-15T17:06:28.577Z,6.80
2018-09-15T17:08:56.901Z,7.17
2018-09-15T17:11:25.410Z,8.43
2018-09-15T17:13:53.959Z,7.10
2018-09-15T17:16:22.578Z,14.90
2018-09-15T17:18:51.040Z,7.80
2018-09-15T17:21:19.519Z,15.20
2018-09-15T17:23:47.320Z,15.27
2018-09-15T17:26:15.194Z,15.00
2018-09-15T17:28:42.976Z,15.70
2018-09-15T17:31:11.161Z,15.00
2018-09-15T17:33:38.952Z,15.40
2018-09-15T17:36:06.903Z,16.90
2018-09-15T17:38:34.874Z,14.57
2018-09-15T17:41:02.912Z,15.60
2018-09-15T17:43:30.802Z,14.67
2018-09-15T17:45:58.647Z,15.23
2018-09-15T17:48:26.423Z,15.70
2018-09-15T17:50:54.220Z,16.63
2018-09-15T17:53:22.009Z,10.20
2018-09-15T17:55:49.815Z,8.37
2018-09-15T17:58:18.161Z,9.50
2018-09-15T18:00:45.977Z,8.90
2018-09-15T18:03:13.793Z,9.13
2018-09-15T18:05:41.612Z,8.87
2018-09-15T18:08:09.508Z,11.80
2018-09-15T18:10:37.357Z,9.40
2018-09-15T18:13:05.312Z,18.70
2018-09-15T18:15:33.253Z,18.50
2018-09-15T18:18:01.162Z,20.23
2018-09-15T18:20:28.936Z,17.20
2018-09-15T18:22:56.736Z,21.93
2018-09-15T18:25:24.615Z,17.97
2018-09-15T18:27:52.397Z,19.80
2018-09-15T18:30:20.172Z,16.50
2018-09-15T18:32:47.959Z,9.07
2018-09-15T18:35:15.860Z,17.30
2018-09-15T18:37:43.638Z,18.73
2018-09-15T18:40:11.493Z,8.90
2018-09-15T18:42:39.249Z,8.70
2018-09-15T18:45:07.205Z,12.13
2018-09-15T18:47:34.964Z,8.33
2018-09-15T18:50:03.060Z,8.40
2018-09-15T18:52:30.901Z,21.73
2018-09-15T18:54:59.817Z,19.50
2018-09-15T18:57:27.607Z,10.07
2018-09-15T18:59:56.084Z,8.53
2018-09-15T19:02:23.945Z,8.37
2018-09-15T19:04:51.860Z,9.33
2018-09-15T19:07:19.792Z,9.63
2018-09-15T19:09:47.617Z,8.90
2018-09-15T19:12:15.525Z,9.50
2018-09-15T19:14:43.408Z,9.93
2018-09-15T19:17:11.222Z,8.47
2018-09-15T19:19:39.169Z,9.73
2018-09-15T19:22:07.169Z,9.57
2018-09-15T19:24:35.075Z,11.50
2018-09-15T19:27:03.130Z,17.90
2018-09-15T19:29:31.094Z,9.87
2018-09-15T19:31:58.878Z,8.80
2018-09-15T19:34:26.662Z,11.70
2018-09-15T19:36:54.437Z,9.80
2018-09-15T19:39:22.285Z,11.00
2018-09-15T19:41:50.081Z,10.77
2018-09-15T19:44:17.994Z,11.57
2018-09-15T19:46:45.737Z,18.27
2018-09-15T19:49:13.674Z,21.30
2018-09-15T19:51:41.483Z,10.97
2018-09-15T19:54:09.249Z,9.93
2018-09-15T19:56:37.069Z,9.73
2018-09-15T19:59:05.360Z,10.73
2018-09-15T20:01:33.297Z,11.83
2018-09-15T20:04:01.131Z,9.70
2018-09-15T20:06:29.038Z,12.27
2018-09-15T20:08:56.825Z,13.80
2018-09-15T20:11:24.636Z,13.23
2018-09-15T20:13:52.537Z,10.60
2018-09-15T20:16:19.243Z,10.97
2018-09-15T20:18:45.932Z,12.60
2018-09-15T20:21:12.496Z,10.70
2018-09-15T20:23:40.295Z,11.30
2018-09-15T20:26:08.101Z,10.77
2018-09-15T20:28:36.064Z,10.10
2018-09-15T20:31:03.857Z,10.23
2018-09-15T20:33:31.698Z,13.50
2018-09-15T20:35:59.489Z,12.53
2018-09-15T20:38:27.325Z,10.30
2018-09-15T20:40:55.219Z,9.93
2018-09-15T20:43:23.181Z,10.00
2018-09-15T20:45:50.973Z,12.53
2018-09-15T20:48:18.785Z,10.97
2018-09-15T20:50:46.557Z,10.97
2018-09-15T20:53:14.320Z,12.50
2018-09-15T20:55:42.109Z,11.60
2018-09-15T20:58:09.908Z,12.53
2018-09-15T21:00:37.712Z,10.93
2018-09-15T21:03:05.553Z,13.63
2018-09-15T21:05:33.494Z,11.60
2018-09-15T21:08:01.280Z,11.63
2018-09-15T21:10:29.098Z,11.37
2018-09-15T21:12:57.004Z,12.10
2018-09-15T21:15:24.829Z,13.53
2018-09-15T21:17:52.641Z,11.93
2018-09-15T21:20:20.440Z,12.43
2018-09-15T21:22:48.338Z,22.00
2018-09-15T21:25:16.210Z,22.50
2018-09-15T21:27:44.012Z,21.47
2018-09-15T21:30:14.113Z,13.27
2018-09-15T21:32:41.928Z,13.07
2018-09-15T21:35:11.801Z,14.30
2018-09-15T21:37:40.853Z,14.67
2018-09-15T21:40:08.721Z,14.27
2018-09-15T21:42:36.664Z,14.23
2018-09-15T21:45:04.758Z,23.37
2018-09-15T21:47:32.853Z,20.70
2018-09-15T21:50:00.889Z,19.50
2018-09-15T21:52:28.808Z,13.93
2018-09-15T21:54:56.614Z,23.90
2018-09-15T21:57:24.429Z,25.20
2018-09-15T21:59:52.208Z,23.50
2018-09-15T22:02:21.761Z,24.10
2018-09-15T22:04:49.763Z,21.80
2018-09-15T22:07:17.688Z,22.40
2018-09-15T22:09:46.325Z,19.83
2018-09-15T22:12:14.153Z,20.40
2018-09-15T22:14:41.931Z,13.93
2018-09-15T22:17:09.748Z,20.00
2018-09-15T22:19:37.573Z,19.93
2018-09-15T22:22:06.730Z,13.43
2018-09-15T22:24:35.087Z,12.10
2018-09-15T22:27:03.544Z,12.60
2018-09-15T22:29:31.367Z,12.90
2018-09-15T22:31:59.237Z,14.00
2018-09-15T22:34:27.001Z,15.33
2018-09-15T22:36:54.900Z,13.00
2018-09-15T22:39:23.020Z,13.20
2018-09-15T22:41:50.960Z,12.47
2018-09-15T22:44:19.060Z,12.60
2018-09-15T22:46:46.901Z,15.23
2018-09-15T22:49:14.663Z,14.50
2018-09-15T22:51:42.485Z,14.17
2018-09-15T22:54:10.427Z,15.00
2018-09-15T22:56:38.233Z,16.43
2018-09-15T22:59:06.477Z,22.10
2018-09-15T23:01:34.288Z,14.80
2018-09-15T23:04:04.466Z,12.73
2018-09-15T23:06:33.217Z,20.83
2018-09-15T23:09:01.245Z,14.07
2018-09-15T23:11:29.045Z,20.27
2018-09-15T23:13:56.921Z,15.33
2018-09-15T23:16:24.710Z,13.73
2018-09-15T23:18:52.542Z,14.87
2018-09-15T23:21:20.284Z,12.80
2018-09-15T23:23:48.225Z,20.83
2018-09-15T23:26:16.460Z,13.67
2018-09-15T23:28:44.206Z,14.33
2018-09-15T23:31:12.045Z,13.67
2018-09-15T23:33:39.849Z,15.80
2018-09-15T23:36:07.677Z,14.40
2018-09-15T23:38:35.452Z,13.87
2018-09-15T23:41:06.068Z,13.07
2018-09-15T23:43:33.853Z,14.40
2018-09-15T23:46:01.603Z,14.13
2018-09-15T23:48:29.427Z,23.33
2018-09-15T23:50:57.261Z,15.47
2018-09-15T23:53:25.025Z,13.93
2018-09-15T23:55:52.826Z,13.27
2018-09-15T23:58:20.644Z,15.07
